createdAt,value
2022-12-07T00:01:22.981Z,46.00
2022-12-07T00:03:51.886Z,50.10
2022-12-07T00:06:19.715Z,41.10
2022-12-07T00:08:47.547Z,39.80
2022-12-07T00:11:20.507Z,36.90
2022-12-07T00:13:51.328Z,36.70
2022-12-07T00:16:20.312Z,35.90
2022-12-07T00:18:47.028Z,34.50
2022-12-07T00:21:41.037Z,35.90
2022-12-07T00:24:08.153Z,36.30
2022-12-07T00:26:37.682Z,38.20
2022-12-07T00:29:18.644Z,38.60
2022-12-07T00:31:46.112Z,39.20
2022-12-07T00:34:15.896Z,37.80
2022-12-07T00:36:42.944Z,39.00
2022-12-07T00:39:10.117Z,38.80
2022-12-07T00:41:36.869Z,37.80
2022-12-07T00:44:03.777Z,38.70
2022-12-07T00:46:30.886Z,36.20
2022-12-07T00:48:57.670Z,37.70
2022-12-07T00:51:26.037Z,34.50
2022-12-07T00:53:53.016Z,33.80
2022-12-07T00:56:22.898Z,29.70
2022-12-07T00:58:57.469Z,32.00
2022-12-07T01:01:26.814Z,29.80
2022-12-07T01:03:53.766Z,28.60
2022-12-07T01:06:22.356Z,27.60
2022-12-07T01:08:49.902Z,27.20
2022-12-07T01:11:19.918Z,26.90
2022-12-07T01:13:49.869Z,26.20
2022-12-07T01:16:17.521Z,25.80
2022-12-07T01:18:47.913Z,26.50
2022-12-07T01:21:27.027Z,27.40
2022-12-07T01:23:54.446Z,24.90
2022-12-07T01:26:24.422Z,24.70
2022-12-07T01:28:51.883Z,24.50
2022-12-07T01:31:21.583Z,24.90
2022-12-07T01:33:53.757Z,22.90
2022-12-07T01:36:22.026Z,22.30
2022-12-07T01:38:52.248Z,22.40
2022-12-07T01:41:20.221Z,22.10
2022-12-07T01:44:14.681Z,21.50
2022-12-07T01:46:43.907Z,21.00
2022-12-07T01:49:15.146Z,21.40
2022-12-07T01:51:43.978Z,21.00
2022-12-07T01:54:13.547Z,19.60
2022-12-07T01:56:44.660Z,20.70
2022-12-07T01:59:11.482Z,19.50
2022-12-07T02:01:38.239Z,18.50
2022-12-07T02:04:06.331Z,19.30
2022-12-07T02:06:35.893Z,18.90
2022-12-07T02:09:02.993Z,19.50
2022-12-07T02:11:29.620Z,18.30
2022-12-07T02:13:56.382Z,19.10
2022-12-07T02:16:40.331Z,19.70
2022-12-07T02:19:37.788Z,17.90
2022-12-07T02:22:46.325Z,17.80
2022-12-07T02:25:31.395Z,18.90
2022-12-07T02:28:26.703Z,18.90
2022-12-07T02:30:59.353Z,19.30
2022-12-07T02:33:36.007Z,18.10
2022-12-07T02:36:12.741Z,17.50
2022-12-07T02:38:48.686Z,17.90
2022-12-07T02:41:36.317Z,16.90
2022-12-07T02:44:08.414Z,18.30
2022-12-07T02:46:42.702Z,16.80
2022-12-07T02:49:11.126Z,16.90
2022-12-07T02:51:44.447Z,16.10
2022-12-07T02:54:14.250Z,15.70
2022-12-07T02:56:43.636Z,15.60
2022-12-07T02:59:23.145Z,15.40
2022-12-07T03:02:11.903Z,15.10
2022-12-07T03:05:16.551Z,15.00
2022-12-07T03:08:00.527Z,14.60
2022-12-07T03:10:52.140Z,15.00
2022-12-07T03:13:25.935Z,14.70
2022-12-07T03:16:15.603Z,14.50
2022-12-07T03:18:57.251Z,13.70
2022-12-07T03:21:27.503Z,13.90
2022-12-07T03:24:00.701Z,14.40
2022-12-07T03:26:38.916Z,14.00
2022-12-07T03:29:13.039Z,14.80
2022-12-07T03:31:51.796Z,14.80
2022-12-07T03:34:31.412Z,15.50
2022-12-07T03:37:07.952Z,15.90
2022-12-07T03:39:41.705Z,15.10
2022-12-07T03:42:10.030Z,15.10
2022-12-07T03:44:37.286Z,14.20
2022-12-07T03:47:11.324Z,14.80
2022-12-07T03:49:40.754Z,15.20
2022-12-07T03:52:31.201Z,15.90
2022-12-07T03:55:19.536Z,15.20
2022-12-07T03:57:51.340Z,15.40
2022-12-07T04:00:19.103Z,14.60
2022-12-07T04:02:46.102Z,14.60
2022-12-07T04:05:12.965Z,14.80
2022-12-07T04:07:40.951Z,14.80
2022-12-07T04:10:08.285Z,14.30
2022-12-07T04:12:34.900Z,15.20
2022-12-07T04:15:01.638Z,14.70
2022-12-07T04:17:28.255Z,13.90
2022-12-07T04:19:55.129Z,14.20
2022-12-07T04:22:21.855Z,14.30
2022-12-07T04:24:48.697Z,14.20
2022-12-07T04:27:15.747Z,14.50
2022-12-07T04:29:42.506Z,14.30
2022-12-07T04:32:09.540Z,13.60
2022-12-07T04:34:36.275Z,13.70
2022-12-07T04:37:03.010Z,13.60
2022-12-07T04:39:32.107Z,13.90
2022-12-07T04:42:00.446Z,13.80
2022-12-07T04:44:28.214Z,13.00
2022-12-07T04:46:55.924Z,14.20
2022-12-07T04:49:23.406Z,12.80
2022-12-07T04:51:50.295Z,12.90
2022-12-07T04:54:17.148Z,13.10
2022-12-07T04:56:44.237Z,13.10
2022-12-07T04:59:12.411Z,14.00
2022-12-07T05:01:39.421Z,13.60
2022-12-07T05:04:06.874Z,14.30
2022-12-07T05:06:33.752Z,13.90
2022-12-07T05:09:00.597Z,15.40
2022-12-07T05:11:39.321Z,15.60
2022-12-07T05:14:18.884Z,17.20
2022-12-07T05:16:48.270Z,16.00
2022-12-07T05:19:15.359Z,16.50
2022-12-07T05:21:42.104Z,15.20
2022-12-07T05:24:12.026Z,16.80
2022-12-07T05:26:39.230Z,15.80
2022-12-07T05:29:06.033Z,16.90
2022-12-07T05:31:34.495Z,17.20
2022-12-07T05:34:01.225Z,17.80
2022-12-07T05:36:29.101Z,15.30
2022-12-07T05:38:55.834Z,15.90
2022-12-07T05:41:40.690Z,17.00
2022-12-07T05:44:07.530Z,16.70
2022-12-07T05:46:34.520Z,16.80
2022-12-07T05:49:01.931Z,18.20
2022-12-07T05:51:28.708Z,18.40
2022-12-07T05:53:55.638Z,17.10
2022-12-07T05:56:23.277Z,18.40
2022-12-07T05:59:08.449Z,15.70
2022-12-07T06:01:35.046Z,15.20
2022-12-07T06:04:01.722Z,14.50
2022-12-07T06:06:28.520Z,14.60
2022-12-07T06:08:55.305Z,14.50
2022-12-07T06:11:40.620Z,15.10
2022-12-07T06:14:07.275Z,14.90
2022-12-07T06:16:34.019Z,17.50
2022-12-07T06:19:00.795Z,18.20
2022-12-07T06:21:27.487Z,16.90
2022-12-07T06:23:54.373Z,15.60
2022-12-07T06:26:21.256Z,14.30
2022-12-07T06:28:47.950Z,14.70
2022-12-07T06:31:14.732Z,13.50
2022-12-07T06:33:41.805Z,13.70
2022-12-07T06:36:09.052Z,14.00
2022-12-07T06:38:36.302Z,13.00
2022-12-07T06:41:03.085Z,13.00
2022-12-07T06:43:30.466Z,12.20
2022-12-07T06:45:57.143Z,11.40
2022-12-07T06:48:23.916Z,12.00
2022-12-07T06:50:54.717Z,13.10
2022-12-07T06:53:22.967Z,12.60
2022-12-07T06:55:49.927Z,13.00
2022-12-07T06:58:17.599Z,12.90
2022-12-07T07:00:45.218Z,12.30
2022-12-07T07:03:12.235Z,11.50
2022-12-07T07:05:38.938Z,11.80
2022-12-07T07:08:21.803Z,11.50
2022-12-07T07:10:49.444Z,11.00
2022-12-07T07:13:16.190Z,11.60
2022-12-07T07:15:43.040Z,12.10
2022-12-07T07:18:09.880Z,12.30
2022-12-07T07:20:37.574Z,11.80
2022-12-07T07:23:04.706Z,11.90
2022-12-07T07:25:31.799Z,12.30
2022-12-07T07:27:58.419Z,11.30
2022-12-07T07:30:25.547Z,12.30
2022-12-07T07:32:52.341Z,13.60
2022-12-07T07:35:19.738Z,14.30
2022-12-07T07:37:46.619Z,13.80
2022-12-07T07:40:13.293Z,12.00
2022-12-07T07:42:39.965Z,13.50
2022-12-07T07:45:07.131Z,12.90
2022-12-07T07:47:33.818Z,11.50
2022-12-07T07:50:01.280Z,11.10
2022-12-07T07:52:28.243Z,10.70
2022-12-07T07:54:54.802Z,10.10
2022-12-07T07:57:21.488Z,9.60
2022-12-07T07:59:48.178Z,9.40
2022-12-07T08:02:19.987Z,9.90
2022-12-07T08:04:47.227Z,8.80
2022-12-07T08:07:15.000Z,10.00
2022-12-07T08:09:42.098Z,9.70
2022-12-07T08:12:08.992Z,8.60
2022-12-07T08:14:35.692Z,8.70
2022-12-07T08:17:02.889Z,8.50
2022-12-07T08:19:29.623Z,7.90
2022-12-07T08:21:56.956Z,8.10
2022-12-07T08:24:25.657Z,7.90
2022-12-07T08:26:52.806Z,7.20
2022-12-07T08:29:19.821Z,7.90
2022-12-07T08:31:46.760Z,8.50
2022-12-07T08:34:14.251Z,7.10
2022-12-07T08:36:41.709Z,7.80
2022-12-07T08:39:30.995Z,7.60
2022-12-07T08:41:55.153Z,7.60
2022-12-07T08:44:21.891Z,8.60
2022-12-07T08:46:54.520Z,9.10
2022-12-07T08:49:36.056Z,9.10
2022-12-07T08:52:05.568Z,8.90
2022-12-07T08:54:36.107Z,8.30
2022-12-07T08:57:03.852Z,8.10
2022-12-07T08:59:31.142Z,8.30
2022-12-07T09:01:57.915Z,7.40
2022-12-07T09:04:24.732Z,8.00
2022-12-07T09:06:51.644Z,8.50
2022-12-07T09:09:18.345Z,7.80
2022-12-07T09:11:45.655Z,8.70
2022-12-07T09:14:13.308Z,9.10
2022-12-07T09:16:40.793Z,9.60
2022-12-07T09:19:08.656Z,9.80
2022-12-07T09:21:35.381Z,8.60
2022-12-07T09:24:02.177Z,8.90
2022-12-07T09:26:28.918Z,8.80
2022-12-07T09:28:55.566Z,8.50
2022-12-07T09:31:24.412Z,8.30
2022-12-07T09:34:00.770Z,8.40
2022-12-07T09:36:29.699Z,8.90
2022-12-07T09:38:56.334Z,8.60
2022-12-07T09:41:25.775Z,9.00
2022-12-07T09:43:58.700Z,8.70
2022-12-07T09:46:25.327Z,8.20
2022-12-07T09:48:52.217Z,8.40
2022-12-07T09:51:24.201Z,8.90
2022-12-07T09:53:57.766Z,8.50
2022-12-07T09:56:25.400Z,8.60
2022-12-07T09:59:03.164Z,9.10
2022-12-07T10:01:32.921Z,9.10
2022-12-07T10:04:10.126Z,8.90
2022-12-07T10:06:36.767Z,8.50
2022-12-07T10:09:13.839Z,8.40
2022-12-07T10:12:02.254Z,7.50
2022-12-07T10:14:58.956Z,7.50
2022-12-07T10:17:32.407Z,6.80
2022-12-07T10:20:20.831Z,7.20
2022-12-07T10:23:01.460Z,7.50
2022-12-07T10:25:33.098Z,8.10
2022-12-07T10:28:17.386Z,7.30
2022-12-07T10:30:52.436Z,7.20
2022-12-07T10:33:50.238Z,7.60
2022-12-07T10:36:22.338Z,7.50
2022-12-07T10:38:53.105Z,6.90
2022-12-07T10:41:20.530Z,7.30
2022-12-07T10:43:49.628Z,7.00
2022-12-07T10:46:44.337Z,7.90
2022-12-07T10:49:32.359Z,7.70
2022-12-07T10:52:18.664Z,7.70
2022-12-07T10:55:16.526Z,6.80
2022-12-07T10:57:48.211Z,6.20
2022-12-07T11:00:25.791Z,7.80
2022-12-07T11:03:20.013Z,7.40
2022-12-07T11:06:07.240Z,7.30
2022-12-07T11:08:42.880Z,6.50
2022-12-07T11:11:28.664Z,6.40
2022-12-07T11:14:14.144Z,6.80
2022-12-07T11:17:23.895Z,7.60
2022-12-07T11:20:13.258Z,7.40
2022-12-07T11:22:56.084Z,7.80
2022-12-07T11:25:31.776Z,7.50
2022-12-07T11:28:35.979Z,7.00
2022-12-07T11:31:27.325Z,6.40
2022-12-07T11:34:08.611Z,7.10
2022-12-07T11:36:42.179Z,6.90
2022-12-07T11:39:21.393Z,6.80
2022-12-07T11:41:53.538Z,6.70
2022-12-07T11:45:01.619Z,7.00
2022-12-07T11:47:54.602Z,6.70
2022-12-07T11:50:48.070Z,7.60
2022-12-07T11:53:39.339Z,7.70
2022-12-07T11:56:11.894Z,7.60
2022-12-07T11:59:05.126Z,7.40
2022-12-07T12:01:33.801Z,7.40
2022-12-07T12:04:07.724Z,7.80
2022-12-07T12:06:35.886Z,7.50
2022-12-07T12:15:37.291Z,7.00
2022-12-07T12:18:20.518Z,7.20
2022-12-07T12:21:01.136Z,7.30
2022-12-07T12:23:42.418Z,7.30
2022-12-07T12:26:19.423Z,8.00
2022-12-07T12:29:36.033Z,7.80
2022-12-07T12:32:25.393Z,8.20
2022-12-07T12:35:33.499Z,8.80
2022-12-07T12:38:20.397Z,8.50
2022-12-07T12:40:50.994Z,8.80
2022-12-07T12:43:48.074Z,8.10
2022-12-07T12:46:50.374Z,8.90
2022-12-07T12:49:20.305Z,9.20
2022-12-07T12:51:50.722Z,9.40
2022-12-07T12:54:26.031Z,8.10
2022-12-07T12:57:07.923Z,9.10
2022-12-07T12:59:40.261Z,9.30
2022-12-07T13:02:22.727Z,9.60
2022-12-07T13:04:54.048Z,8.40
2022-12-07T13:07:54.659Z,8.70
2022-12-07T13:10:24.681Z,9.70
2022-12-07T13:13:15.752Z,10.20
2022-12-07T13:15:51.343Z,10.10
2022-12-07T13:18:30.309Z,10.70
2022-12-07T13:21:09.657Z,10.80
2022-12-07T13:23:38.408Z,11.20
2022-12-07T13:26:17.730Z,11.20
2022-12-07T13:28:46.689Z,12.10
2022-12-07T13:31:35.711Z,13.00
2022-12-07T13:34:26.304Z,12.70
2022-12-07T13:36:53.109Z,13.30
2022-12-07T13:39:25.911Z,13.20
2022-12-07T13:41:55.801Z,14.30
2022-12-07T13:44:23.913Z,14.60
2022-12-07T13:47:00.319Z,13.50
2022-12-07T13:49:32.456Z,13.90
2022-12-07T13:52:18.143Z,13.60
2022-12-07T13:54:50.593Z,15.20
2022-12-07T13:57:18.184Z,16.10
2022-12-07T13:59:46.007Z,17.60
2022-12-07T14:02:21.786Z,19.50
2022-12-07T14:04:51.214Z,22.50
2022-12-07T14:07:29.435Z,21.20
2022-12-07T14:09:59.027Z,22.90
2022-12-07T14:12:27.121Z,23.40
2022-12-07T14:14:55.470Z,20.90
2022-12-07T14:17:25.058Z,19.30
2022-12-07T14:19:59.008Z,18.40
2022-12-07T14:22:38.110Z,17.30
2022-12-07T14:25:13.562Z,15.70
2022-12-07T14:27:49.082Z,15.70
2022-12-07T14:30:18.482Z,13.80
2022-12-07T14:32:49.098Z,13.30
2022-12-07T14:35:17.999Z,14.50
2022-12-07T14:37:47.188Z,13.60
2022-12-07T14:40:16.812Z,13.50
2022-12-07T14:42:45.066Z,14.30
2022-12-07T14:45:16.011Z,12.70
2022-12-07T14:50:30.134Z,12.80
2022-12-07T14:55:48.428Z,12.00
2022-12-07T14:58:16.810Z,12.60
2022-12-07T15:00:44.427Z,12.00
2022-12-07T15:03:13.395Z,12.00
2022-12-07T15:05:41.386Z,11.70
2022-12-07T15:08:12.780Z,11.50
2022-12-07T15:10:40.487Z,11.50
2022-12-07T15:13:26.513Z,11.90
2022-12-07T15:15:54.279Z,12.50
2022-12-07T15:18:22.259Z,12.00
2022-12-07T15:20:48.951Z,12.00
2022-12-07T15:23:15.770Z,12.10
2022-12-07T15:25:43.723Z,12.20
2022-12-07T15:28:10.440Z,13.10
2022-12-07T15:30:38.357Z,13.00
2022-12-07T15:33:04.994Z,12.80
2022-12-07T15:35:31.668Z,12.60
2022-12-07T15:37:58.244Z,12.90
2022-12-07T15:40:24.862Z,13.40
2022-12-07T15:42:51.469Z,14.00
2022-12-07T15:45:18.517Z,13.40
2022-12-07T15:50:32.198Z,13.00
2022-12-07T15:52:58.862Z,12.60
2022-12-07T15:55:25.482Z,12.90
2022-12-07T15:57:52.223Z,12.40
2022-12-07T16:00:19.561Z,12.40
2022-12-07T16:02:46.458Z,12.50
2022-12-07T16:05:13.225Z,12.10
2022-12-07T16:07:39.873Z,11.80
2022-12-07T16:10:07.347Z,12.80
2022-12-07T16:12:34.003Z,12.50
2022-12-07T16:15:00.878Z,12.50
2022-12-07T16:17:27.830Z,11.90
2022-12-07T16:19:54.576Z,12.40
2022-12-07T16:22:21.422Z,12.00
2022-12-07T16:24:48.190Z,12.10
2022-12-07T16:27:15.144Z,12.30
2022-12-07T16:29:41.946Z,12.00
2022-12-07T16:32:08.610Z,11.30
2022-12-07T16:34:35.617Z,12.20
2022-12-07T16:37:04.329Z,11.50
2022-12-07T16:39:32.148Z,11.60
2022-12-07T16:41:58.833Z,11.40
2022-12-07T16:44:25.678Z,11.30
2022-12-07T16:46:52.393Z,11.50
2022-12-07T16:49:19.485Z,11.30
2022-12-07T16:52:03.123Z,11.00
2022-12-07T16:54:36.533Z,10.30
2022-12-07T16:57:03.336Z,10.90
2022-12-07T16:59:30.496Z,11.40
2022-12-07T17:01:57.085Z,11.60
2022-12-07T17:04:23.819Z,10.90
2022-12-07T17:06:50.596Z,11.60
2022-12-07T17:09:21.171Z,11.20
2022-12-07T17:11:48.726Z,11.70
2022-12-07T17:14:34.263Z,11.70
2022-12-07T17:17:01.310Z,11.50
2022-12-07T17:19:27.947Z,11.90
2022-12-07T17:21:54.581Z,11.00
2022-12-07T17:24:21.217Z,10.90
2022-12-07T17:26:48.073Z,10.90
2022-12-07T17:29:16.921Z,11.20
2022-12-07T17:31:49.513Z,10.50
2022-12-07T17:34:18.815Z,10.90
2022-12-07T17:36:45.564Z,10.90
2022-12-07T17:39:16.302Z,9.90
2022-12-07T17:42:01.786Z,10.80
2022-12-07T17:44:28.824Z,11.20
2022-12-07T17:46:59.319Z,11.60
2022-12-07T17:49:26.805Z,11.40
2022-12-07T17:52:12.609Z,11.00
2022-12-07T17:54:39.383Z,11.30
2022-12-07T17:57:06.179Z,10.90
2022-12-07T17:59:32.927Z,10.10
2022-12-07T18:01:59.658Z,9.50
2022-12-07T18:04:26.431Z,9.50
2022-12-07T18:06:53.076Z,9.40
2022-12-07T18:09:21.453Z,8.70
2022-12-07T18:11:48.017Z,8.50
2022-12-07T18:14:16.111Z,8.10
2022-12-07T18:16:43.181Z,8.00
2022-12-07T18:19:12.963Z,8.40
2022-12-07T18:21:40.735Z,8.80
2022-12-07T18:24:10.472Z,8.60
2022-12-07T18:26:37.797Z,8.50
2022-12-07T18:29:06.708Z,8.80
2022-12-07T18:31:34.989Z,8.00
2022-12-07T18:34:04.767Z,8.50
2022-12-07T18:36:31.611Z,8.90
2022-12-07T18:38:58.276Z,8.30
2022-12-07T18:41:24.920Z,8.20
2022-12-07T18:43:51.726Z,9.60
2022-12-07T18:46:20.743Z,8.70
2022-12-07T18:48:49.734Z,7.20
2022-12-07T18:51:17.626Z,6.40
2022-12-07T18:53:44.631Z,6.40
2022-12-07T18:56:14.352Z,6.10
2022-12-07T18:59:00.133Z,6.50
2022-12-07T19:01:27.443Z,5.90
2022-12-07T19:03:54.212Z,5.90
2022-12-07T19:06:20.819Z,5.00
2022-12-07T19:08:47.484Z,5.10
2022-12-07T19:11:41.196Z,5.10
2022-12-07T19:14:07.893Z,6.20
2022-12-07T19:16:34.874Z,6.90
2022-12-07T19:19:01.747Z,8.80
2022-12-07T19:21:28.562Z,10.50
2022-12-07T19:23:55.715Z,10.80
2022-12-07T19:26:22.818Z,9.90
2022-12-07T19:28:50.309Z,9.60
2022-12-07T19:31:17.182Z,10.30
2022-12-07T19:33:43.957Z,10.10
2022-12-07T19:36:10.818Z,8.70
2022-12-07T19:38:37.387Z,9.30
2022-12-07T19:41:32.506Z,8.70
2022-12-07T19:44:00.444Z,8.40
2022-12-07T19:46:27.616Z,9.00
2022-12-07T19:48:54.551Z,9.10
2022-12-07T19:51:21.754Z,9.20
2022-12-07T19:53:48.383Z,9.50
2022-12-07T19:56:17.172Z,9.20
2022-12-07T19:58:43.912Z,10.50
2022-12-07T20:01:11.433Z,8.40
2022-12-07T20:03:38.084Z,8.20
2022-12-07T20:06:13.555Z,8.30
2022-12-07T20:08:41.108Z,8.30
2022-12-07T20:11:26.521Z,9.30
2022-12-07T20:13:53.724Z,9.80
2022-12-07T20:16:21.295Z,9.50
2022-12-07T20:18:51.623Z,10.80
2022-12-07T20:21:21.224Z,10.60
2022-12-07T20:23:47.809Z,11.90
2022-12-07T20:26:14.602Z,12.10
2022-12-07T20:28:45.751Z,11.30
2022-12-07T20:31:14.694Z,11.60
2022-12-07T20:33:45.878Z,11.50
2022-12-07T20:36:15.380Z,11.40
2022-12-07T20:38:43.603Z,11.60
2022-12-07T20:41:31.185Z,11.40
2022-12-07T20:43:58.947Z,11.60
2022-12-07T20:46:26.304Z,10.50
2022-12-07T20:48:53.431Z,9.70
2022-12-07T20:51:20.288Z,8.60
2022-12-07T20:53:46.938Z,7.20
2022-12-07T20:56:27.089Z,7.30
2022-12-07T20:58:55.262Z,7.20
2022-12-07T21:01:22.221Z,8.10
2022-12-07T21:03:49.039Z,8.20
2022-12-07T21:06:17.508Z,7.90
2022-12-07T21:08:49.500Z,8.10
2022-12-07T21:11:18.006Z,8.70
2022-12-07T21:13:45.401Z,8.50
2022-12-07T21:16:24.381Z,8.30
2022-12-07T21:18:51.433Z,8.20
2022-12-07T21:21:19.348Z,8.70
2022-12-07T21:23:48.519Z,9.30
2022-12-07T21:26:18.977Z,10.80
2022-12-07T21:28:46.245Z,11.30
2022-12-07T21:31:14.110Z,10.90
2022-12-07T21:33:43.462Z,10.20
2022-12-07T21:36:12.596Z,8.90
2022-12-07T21:38:39.383Z,8.00
2022-12-07T21:41:12.731Z,7.90
2022-12-07T21:43:39.549Z,8.10
2022-12-07T21:46:06.710Z,7.80
2022-12-07T21:48:33.670Z,7.60
2022-12-07T21:51:13.818Z,8.30
2022-12-07T21:53:42.614Z,6.80
2022-12-07T21:56:23.984Z,6.00
2022-12-07T21:58:52.051Z,5.20
2022-12-07T22:01:26.930Z,5.30
2022-12-07T22:03:54.341Z,6.30
2022-12-07T22:06:23.957Z,6.40
2022-12-07T22:08:51.503Z,7.00
2022-12-07T22:11:18.860Z,7.10
2022-12-07T22:14:09.889Z,6.40
2022-12-07T22:16:37.725Z,5.80
2022-12-07T22:19:05.801Z,6.00
2022-12-07T22:21:33.463Z,5.90
2022-12-07T22:24:00.278Z,6.30
2022-12-07T22:26:27.246Z,5.90
2022-12-07T22:28:54.089Z,5.90
2022-12-07T22:31:21.834Z,4.50
2022-12-07T22:33:49.119Z,3.70
2022-12-07T22:36:16.044Z,3.40
2022-12-07T22:38:43.170Z,3.50
2022-12-07T22:41:17.874Z,4.10
2022-12-07T22:43:44.892Z,5.40
2022-12-07T22:46:11.556Z,7.60
2022-12-07T22:48:38.248Z,7.80
2022-12-07T22:51:04.986Z,8.60
2022-12-07T22:53:31.724Z,8.10
2022-12-07T22:55:58.455Z,8.40
2022-12-07T22:58:25.086Z,6.70
2022-12-07T23:00:54.498Z,7.00
2022-12-07T23:03:21.193Z,6.40
2022-12-07T23:05:49.066Z,6.00
2022-12-07T23:08:16.689Z,6.00
2022-12-07T23:10:48.013Z,6.60
2022-12-07T23:13:32.389Z,7.00
2022-12-07T23:16:01.158Z,7.20
2022-12-07T23:18:28.011Z,7.50
2022-12-07T23:20:57.843Z,7.90
2022-12-07T23:23:25.124Z,8.20
2022-12-07T23:25:52.298Z,8.90
2022-12-07T23:28:19.394Z,8.50
2022-12-07T23:30:46.287Z,8.10
2022-12-07T23:33:13.132Z,8.40
2022-12-07T23:35:39.753Z,7.80
2022-12-07T23:38:06.374Z,7.70
2022-12-07T23:40:33.047Z,7.50
2022-12-07T23:42:59.679Z,7.50
2022-12-07T23:45:26.374Z,8.20
2022-12-07T23:47:53.054Z,8.60
2022-12-07T23:50:19.794Z,7.70
2022-12-07T23:52:46.442Z,7.70
2022-12-07T23:55:13.170Z,7.80
2022-12-07T23:57:39.814Z,8.90
